Time,TemperatureF,DewpointF,PressureIn,WindDirection,WindDirectionDegrees,WindSpeedMPH,WindSpeedGustMPH,Humidity,HourlyPrecipIn,Conditions,Clouds,dailyrainin,SoftwareType,DateUTC
2013-03-08 00:22:00,42.0,-99.9,-100.00,SW,218,6.0,10.0,-999,-99.99,,,-99.99,,2013-03-08 08:22:00,
2013-03-08 03:22:00,40.0,-99.9,-100.00,North,2,4.0,8.0,-999,-99.99,,,-99.99,,2013-03-08 11:22:00,
2013-03-08 03:32:00,39.0,-99.9,-100.00,North,351,5.0,6.0,-999,-99.99,,,-99.99,,2013-03-08 11:32:00,
2013-03-08 03:42:00,39.0,-99.9,-100.00,North,351,5.0,6.0,-999,-99.99,,,-99.99,,2013-03-08 11:42:00,
2013-03-08 03:52:00,39.0,-99.9,-100.00,North,351,5.0,6.0,-999,-99.99,,,-99.99,,2013-03-08 11:52:00,
2013-03-08 04:50:00,35.0,-99.9,-100.00,SSW,200,8.0,11.0,-999,-99.99,,,-99.99,,2013-03-08 12:50:00,
2013-03-08 05:33:00,35.0,-99.9,-100.00,SSW,200,8.0,11.0,-999,-99.99,,,-99.99,,2013-03-08 13:33:00,
2013-03-08 05:42:00,35.0,-99.9,-100.00,SSW,200,8.0,11.0,-999,-99.99,,,-99.99,,2013-03-08 13:42:00,
2013-03-08 07:50:00,37.0,-99.9,-100.00,SW,216,4.0,13.0,-999,-99.99,,,-99.99,,2013-03-08 15:50:00,
2013-03-08 08:32:00,37.0,-99.9,-100.00,SW,216,4.0,13.0,-999,-99.99,,,-99.99,,2013-03-08 16:32:00,
2013-03-08 08:42:00,37.0,-99.9,-100.00,SW,216,4.0,13.0,-999,-99.99,,,-99.99,,2013-03-08 16:42:00,
2013-03-08 10:30:00,38.0,-99.9,-100.00,WSW,248,6.0,14.0,-999,-99.99,,,-99.99,,2013-03-08 18:30:00,
2013-03-08 11:22:00,38.0,-99.9,-100.00,WSW,248,6.0,14.0,-999,-99.99,,,-99.99,,2013-03-08 19:22:00,
2013-03-08 12:22:00,40.0,-99.9,-100.00,SW,234,7.0,14.0,-999,-99.99,,,-99.99,,2013-03-08 20:22:00,
2013-03-08 12:32:00,40.0,-99.9,-100.00,SW,234,7.0,14.0,-999,-99.99,,,-99.99,,2013-03-08 20:32:00,
2013-03-08 15:22:00,41.0,-99.9,-100.00,SW,231,24.0,31.0,-999,-99.99,,,-99.99,,2013-03-08 23:22:00,
2013-03-08 15:32:00,41.0,-99.9,-100.00,SW,231,24.0,31.0,-999,-99.99,,,-99.99,,2013-03-08 23:32:00,
2013-03-08 15:40:00,43.0,-99.9,-100.00,WNW,289,4.0,21.0,-999,-99.99,,,-99.99,,2013-03-08 23:40:00,
2013-03-08 16:20:00,46.0,-99.9,-100.00,ESE,120,15.0,29.0,-999,-99.99,,,-99.99,,2013-03-09 00:20:00,
2013-03-08 16:22:00,43.0,-99.9,-100.00,WNW,289,4.0,21.0,-999,-99.99,,,-99.99,,2013-03-09 00:22:00,
2013-03-08 16:32:00,43.0,-99.9,-100.00,WNW,289,4.0,21.0,-999,-99.99,,,-99.99,,2013-03-09 00:32:00,
2013-03-08 17:02:00,46.0,-99.9,-100.00,ESE,120,15.0,29.0,-999,-99.99,,,-99.99,,2013-03-09 01:02:00,
2013-03-08 17:12:00,46.0,-99.9,-100.00,ESE,120,15.0,29.0,-999,-99.99,,,-99.99,,2013-03-09 01:12:00,
2013-03-08 18:20:00,41.0,-99.9,-100.00,East,97,9.0,15.0,-999,-99.99,,,-99.99,,2013-03-09 02:20:00,
2013-03-08 19:11:00,41.0,-99.9,-100.00,East,97,9.0,15.0,-999,-99.99,,,-99.99,,2013-03-09 03:11:00,
2013-03-08 19:32:00,41.0,-99.9,-100.00,ESE,114,14.0,17.0,-999,-99.99,,,-99.99,,2013-03-09 03:32:00,
2013-03-08 19:42:00,41.0,-99.9,-100.00,ESE,114,14.0,17.0,-999,-99.99,,,-99.99,,2013-03-09 03:42:00,
2013-03-08 22:32:00,42.0,-99.9,-100.00,North,0,10.0,15.0,-999,-99.99,,,-99.99,,2013-03-09 06:32:00,
2013-03-08 22:42:00,42.0,-99.9,-100.00,North,0,10.0,15.0,-999,-99.99,,,-99.99,,2013-03-09 06:42:00,
2013-03-08 23:01:00,41.0,-99.9,-100.00,WSW,244,33.0,39.0,-999,-99.99,,,-99.99,,2013-03-09 07:01:00,
2013-03-08 23:10:00,42.0,-99.9,-100.00,West,268,21.0,42.0,-999,-99.99,,,-99.99,,2013-03-09 07:10:00,
2013-03-08 23:11:00,41.0,-99.9,-100.00,WSW,244,33.0,39.0,-999,-99.99,,,-99.99,,2013-03-09 07:11:00,
2013-03-08 23:22:00,41.0,-99.9,-100.00,WSW,244,33.0,39.0,-999,-99.99,,,-99.99,,2013-03-09 07:22:00,
2013-03-08 23:52:00,42.0,-99.9,-100.00,West,268,21.0,42.0,-999,-99.99,,,-99.99,,2013-03-09 07:52:00,